Time;durP1;ratioP1;P1;durP2;ratioP2;P2;SDS_P1;SDS_P2;PMS_P1;PMS_P2;Temp;Humidity;BMP_temperature;BMP_pressure;BME280_temperature;BME280_humidity;BME280_pressure;Samples;Min_cycle;Max_cycle;Signal;HPM_P1;HPM_P2
2021/05/23 00:02:09;;;;;;;0.50;0.50;;;19.50;44.40;;;23.07;30.59;100339.84;5135470;27;20381;-44
2021/05/23 00:04:35;;;;;;;1.20;0.80;;;19.50;44.40;;;23.08;30.42;100332.69;5117829;27;20525;-47
2021/05/23 00:07:03;;;;;;;0.70;0.70;;;19.50;44.40;;;23.07;30.51;100331.84;5117968;27;20047;-45
2021/05/23 00:09:29;;;;;;;0.60;0.60;;;19.50;44.40;;;23.05;30.56;100332.88;5118046;27;20047;-47
2021/05/23 00:11:55;;;;;;;0.55;0.55;;;19.50;44.40;;;23.07;30.56;100341.63;5135066;27;20054;-44
2021/05/23 00:14:23;;;;;;;0.60;0.60;;;19.60;44.40;;;23.05;30.38;100336.41;5135820;27;20099;-46
2021/05/23 00:16:49;;;;;;;0.55;0.55;;;19.50;44.30;;;23.10;30.37;100349.41;5121087;27;20095;-47
2021/05/23 00:19:16;;;;;;;0.70;0.50;;;19.60;44.40;;;23.10;30.64;100342.28;5119169;27;20053;-46
2021/05/23 00:21:42;;;;;;;0.60;0.60;;;19.50;44.30;;;23.07;30.51;100337.19;5104415;27;20047;-46
2021/05/23 00:24:09;;;;;;;0.82;0.60;;;19.50;44.40;;;23.09;30.57;100334.38;5120599;27;20464;-44
2021/05/23 00:26:36;;;;;;;1.55;0.90;;;19.60;44.40;;;23.08;30.55;100338.00;5102791;27;20482;-43
2021/05/23 00:29:06;;;;;;;0.60;0.60;;;19.50;44.40;;;23.08;30.61;100348.69;5101937;27;20111;-45
2021/05/23 00:31:33;;;;;;;0.82;0.70;;;19.50;44.40;;;23.08;30.49;100349.53;5103891;27;20043;-44
2021/05/23 00:33:59;;;;;;;0.50;0.50;;;19.50;44.40;;;23.05;30.55;100339.06;5120183;27;20047;-44
2021/05/23 00:36:25;;;;;;;0.65;0.65;;;19.50;44.40;;;23.04;30.65;100341.88;5104324;27;20557;-44
2021/05/23 00:38:51;;;;;;;0.63;0.63;;;19.50;44.40;;;23.06;30.65;100351.47;5103633;27;20402;-44
2021/05/23 00:41:17;;;;;;;0.70;0.70;;;19.50;44.50;;;23.05;30.54;100347.06;5120677;27;20136;-43
2021/05/23 00:43:43;;;;;;;0.68;0.68;;;19.50;44.40;;;23.08;30.59;100346.00;5121128;27;20070;-46
2021/05/23 00:46:09;;;;;;;0.60;0.60;;;19.50;44.40;;;23.06;30.65;100348.81;5137963;27;20046;-45
2021/05/23 00:48:34;;;;;;;0.75;0.75;;;19.50;44.50;;;23.05;30.54;100352.41;5103670;27;20520;-44
2021/05/23 00:51:00;;;;;;;1.45;0.80;;;19.50;44.50;;;23.06;30.63;100354.13;5120587;27;20066;-45
2021/05/23 00:53:26;;;;;;;0.65;0.65;;;19.50;44.40;;;23.01;30.49;100342.94;5137879;27;20039;-45
2021/05/23 00:55:52;;;;;;;1.38;0.60;;;19.50;44.40;;;23.04;30.69;100350.72;5120870;27;20138;-43
2021/05/23 00:58:20;;;;;;;0.50;0.50;;;19.50;44.40;;;23.04;30.56;100350.72;5120601;27;20057;-44
2021/05/23 01:00:46;;;;;;;0.73;0.73;;;19.50;44.50;;;23.05;30.76;100352.41;5120793;27;20129;-43
2021/05/23 01:03:27;;;;;;;1.08;0.50;;;19.50;44.50;;;23.05;30.55;100354.22;5135675;27;20072;-44
2021/05/23 01:05:56;;;;;;;0.60;0.60;;;19.50;44.50;;;23.03;30.52;100357.00;5120180;27;20046;-44
2021/05/23 01:08:23;;;;;;;1.27;0.70;;;19.50;44.40;;;23.05;30.56;100357.72;5156076;27;20485;-46
2021/05/23 01:11:16;;;;;;;0.70;0.70;;;19.50;44.50;;;23.06;30.73;100364.81;5120726;27;20050;-43
2021/05/23 01:13:57;;;;;;;0.63;0.63;;;19.50;44.40;;;23.03;30.64;100357.00;5135504;27;20053;-44
2021/05/23 01:16:52;;;;;;;0.90;0.63;;;19.50;44.40;;;23.03;30.66;100364.16;5120109;27;20385;-46
2021/05/23 01:19:33;;;;;;;0.60;0.60;;;19.50;44.50;;;23.03;30.56;100372.16;5118861;27;20193;-44
2021/05/23 01:22:26;;;;;;;1.20;0.80;;;19.50;44.50;;;23.01;30.41;100368.78;5120220;27;20129;-45
2021/05/23 01:25:13;;;;;;;0.60;0.60;;;19.50;44.50;;;23.00;30.59;100359.06;5119926;27;20074;-45
2021/05/23 01:27:45;;;;;;;0.60;0.60;;;19.50;44.50;;;23.01;30.49;100369.63;5119019;27;20138;-45
2021/05/23 01:30:27;;;;;;;0.85;0.80;;;19.50;44.50;;;23.01;30.61;100376.78;5137912;27;20205;-46
2021/05/23 01:32:58;;;;;;;0.68;0.60;;;19.50;44.50;;;23.01;30.63;100372.28;5119988;27;20050;-48
2021/05/23 01:35:34;;;;;;;0.90;0.90;;;19.50;44.50;;;23.01;30.76;100377.63;5137711;27;20058;-45
2021/05/23 01:38:00;;;;;;;0.57;0.50;;;19.50;44.50;;;23.04;30.77;100373.88;5103574;27;20058;-43
2021/05/23 01:40:31;;;;;;;1.95;0.80;;;19.50;44.50;;;23.01;30.60;100369.63;5136928;27;20050;-49
2021/05/23 01:42:58;;;;;;;0.55;0.55;;;19.50;44.50;;;23.02;30.56;100374.00;5120148;27;20103;-47
2021/05/23 01:45:24;;;;;;;1.52;0.82;;;19.50;44.50;;;23.00;30.54;100367.91;5136847;27;20047;-47
2021/05/23 01:47:51;;;;;;;1.00;0.80;;;19.50;44.50;;;22.99;30.68;100374.22;5119656;27;20049;-49
2021/05/23 01:50:17;;;;;;;0.80;0.60;;;19.50;44.50;;;23.02;30.66;100384.66;5100858;27;20050;-48
2021/05/23 01:52:53;;;;;;;0.70;0.70;;;19.50;44.50;;;23.01;30.55;100382.09;5119738;27;20043;-47
2021/05/23 01:55:20;;;;;;;0.70;0.70;;;19.40;44.50;;;23.01;30.52;100382.09;5155724;27;20141;-45
2021/05/23 01:57:46;;;;;;;1.02;0.65;;;19.40;44.50;;;23.00;30.57;100377.72;5119336;27;20375;-47
2021/05/23 02:00:16;;;;;;;0.90;0.65;;;19.40;44.50;;;23.00;30.46;100375.06;5119190;27;20051;-47
2021/05/23 02:02:42;;;;;;;0.98;0.70;;;19.40;44.50;;;23.00;30.72;100385.72;5118748;27;20046;-47
2021/05/23 02:05:09;;;;;;;0.70;0.70;;;19.50;44.60;;;23.02;30.57;100383.78;5113368;27;20457;-47
2021/05/23 02:07:35;;;;;;;0.75;0.70;;;19.40;44.50;;;22.99;30.75;100379.56;5102311;27;20051;-45
2021/05/23 02:10:11;;;;;;;0.60;0.60;;;19.40;44.50;;;22.98;30.62;100385.84;5119371;27;20058;-43
2021/05/23 02:12:38;;;;;;;0.50;0.50;;;19.50;44.60;;;23.00;30.52;100383.91;5119375;27;20038;-45
2021/05/23 02:15:06;;;;;;;1.15;0.77;;;19.40;44.50;;;22.97;30.62;100375.31;5136503;27;20489;-46
2021/05/23 02:17:37;;;;;;;0.77;0.70;;;19.40;44.50;;;22.96;30.77;100378.97;5101786;27;20112;-47
2021/05/23 02:20:10;;;;;;;0.68;0.60;;;19.40;44.50;;;22.99;30.68;100390.22;5136526;27;20043;-44
2021/05/23 02:22:41;;;;;;;1.90;1.00;;;19.40;44.50;;;22.97;30.71;100384.16;5136319;27;20099;-43
2021/05/23 02:25:10;;;;;;;0.73;0.73;;;19.40;44.50;;;22.94;30.75;100371.91;5136456;27;20389;-44
2021/05/23 02:27:39;;;;;;;0.73;0.73;;;19.40;44.50;;;22.95;30.59;100380.75;5102012;27;20576;-45
2021/05/23 02:30:37;;;;;;;1.23;0.70;;;19.40;44.50;;;22.98;30.46;100387.69;5104419;27;20405;-43
2021/05/23 02:33:07;;;;;;;0.60;0.60;;;19.40;44.50;;;22.98;30.65;100391.19;5154734;27;20178;-44
2021/05/23 02:35:36;;;;;;;1.38;0.70;;;19.40;44.50;;;22.97;30.67;100388.63;5119504;27;20047;-44
2021/05/23 02:38:05;;;;;;;0.80;0.70;;;19.40;44.50;;;22.97;30.69;100389.50;5117703;27;20398;-44
2021/05/23 02:40:33;;;;;;;0.60;0.60;;;19.40;44.50;;;22.96;30.65;100401.13;5154668;27;20098;-43
2021/05/23 02:43:00;;;;;;;0.70;0.70;;;19.40;44.50;;;22.96;30.85;100397.63;5117482;27;20075;-44
2021/05/23 02:45:27;;;;;;;0.50;0.50;;;19.40;44.50;;;22.97;30.50;100399.28;5101817;27;20039;-44
2021/05/23 02:47:54;;;;;;;0.60;0.60;;;19.40;44.50;;;22.92;30.66;100399.66;5135828;27;20077;-43
2021/05/23 02:50:24;;;;;;;0.60;0.60;;;19.40;44.50;;;22.92;30.72;100403.19;5136268;27;20138;-44
2021/05/23 02:52:50;;;;;;;0.60;0.60;;;19.40;44.50;;;22.94;30.67;100406.56;5118785;27;20050;-46
2021/05/23 02:55:16;;;;;;;1.08;0.70;;;19.40;44.60;;;22.96;30.78;100417.13;5100528;27;20058;-44
2021/05/23 02:57:44;;;;;;;0.63;0.60;;;19.40;44.50;;;22.92;30.74;100407.66;5085553;27;20081;-45
2021/05/23 03:00:15;;;;;;;1.08;0.70;;;19.40;44.60;;;22.93;30.58;100412.84;5118730;27;20043;-45
2021/05/23 03:02:42;;;;;;;0.80;0.80;;;19.40;44.60;;;22.96;30.81;100418.94;5083264;27;20067;-45
2021/05/23 03:05:12;;;;;;;0.63;0.63;;;19.40;44.60;;;22.94;30.80;100422.56;5154287;27;20054;-44
2021/05/23 03:07:44;;;;;;;0.70;0.63;;;19.40;44.60;;;22.90;30.64;100415.78;5119024;27;20450;-47
2021/05/23 03:10:15;;;;;;;0.90;0.82;;;19.40;44.60;;;22.94;30.68;100427.06;5086926;27;20047;-45
2021/05/23 03:12:41;;;;;;;1.30;0.60;;;19.40;44.60;;;22.91;30.61;100421.97;5102144;27;20130;-46
2021/05/23 03:15:12;;;;;;;0.63;0.63;;;19.40;44.60;;;22.93;30.55;100433.34;5119061;27;20141;-44
2021/05/23 03:17:39;;;;;;;0.63;0.63;;;19.40;44.60;;;22.94;30.67;100432.41;5135700;27;20481;-47
2021/05/23 03:20:08;;;;;;;0.80;0.70;;;19.40;44.60;;;22.94;30.68;100440.41;5118574;27;20046;-44
2021/05/23 03:22:38;;;;;;;0.80;0.75;;;19.40;44.60;;;22.93;30.57;100439.53;5101419;27;20046;-49
2021/05/23 03:25:06;;;;;;;0.63;0.60;;;19.40;44.60;;;22.96;30.60;100442.94;5118669;27;20081;-44
2021/05/23 03:27:33;;;;;;;1.25;1.00;;;19.40;44.60;;;22.90;30.61;100449.56;5118272;27;20482;-46
2021/05/23 03:29:59;;;;;;;0.65;0.65;;;19.40;44.60;;;22.91;30.77;100451.28;5118216;27;20039;-47
2021/05/23 03:32:24;;;;;;;0.65;0.63;;;19.40;44.60;;;22.90;30.85;100454.91;5135434;27;20039;-45
2021/05/23 03:34:50;;;;;;;0.70;0.70;;;19.40;44.60;;;22.90;30.69;100458.44;5116999;27;20051;-46
2021/05/23 03:37:16;;;;;;;0.95;0.77;;;19.40;44.60;;;22.91;30.66;100462.78;5101092;27;20060;-43
2021/05/23 03:39:42;;;;;;;0.65;0.65;;;19.40;44.60;;;22.92;30.60;100464.50;5135278;27;20073;-45
2021/05/23 03:42:08;;;;;;;1.00;0.60;;;19.40;44.60;;;22.94;30.76;100477.72;5118667;27;20462;-45
2021/05/23 03:44:34;;;;;;;0.70;0.70;;;19.40;44.50;;;22.92;30.61;100467.16;5118674;27;20042;-46
2021/05/23 03:47:00;;;;;;;0.77;0.60;;;19.40;44.50;;;22.93;30.75;100466.19;5117570;27;20042;-45
2021/05/23 03:49:26;;;;;;;0.70;0.70;;;19.40;44.50;;;22.94;30.59;100473.22;5135765;27;20039;-46
2021/05/23 03:51:52;;;;;;;0.68;0.68;;;19.40;44.40;;;22.97;30.69;100481.94;5121650;27;20389;-44
2021/05/23 03:54:18;;;;;;;0.93;0.55;;;19.40;44.40;;;23.00;30.86;100487.06;5104504;27;20050;-46
2021/05/23 03:56:44;;;;;;;0.88;0.60;;;19.50;44.40;;;23.00;30.54;100482.56;5137882;27;20089;-43
2021/05/23 03:59:10;;;;;;;0.65;0.63;;;19.50;44.40;;;23.03;30.64;100486.81;5137227;27;20432;-48
2021/05/23 04:01:36;;;;;;;0.60;0.60;;;19.50;44.30;;;23.06;30.40;100494.59;5106596;27;20129;-46
2021/05/23 04:04:02;;;;;;;0.60;0.60;;;19.50;44.30;;;23.06;30.57;100489.25;5120395;27;20054;-45
2021/05/23 04:06:28;;;;;;;0.90;0.77;;;19.60;44.30;;;23.12;30.48;100494.13;5138571;27;20038;-48
2021/05/23 04:08:55;;;;;;;0.80;0.80;;;19.60;44.20;;;23.15;30.34;100485.91;5108487;27;20057;-48
2021/05/23 04:11:25;;;;;;;0.77;0.68;;;19.70;44.10;;;23.26;30.54;100506.44;5121066;27;20117;-44
2021/05/23 04:13:51;;;;;;;0.93;0.73;;;19.80;43.80;;;23.34;30.43;100498.69;5122096;27;20046;-45
2021/05/23 04:16:17;;;;;;;0.60;0.60;;;19.90;43.60;;;23.39;30.29;100503.63;5138370;27;20130;-45
2021/05/23 04:18:43;;;;;;;0.88;0.80;;;20.00;43.50;;;23.42;30.22;100511.41;5136219;27;20126;-44
2021/05/23 04:21:09;;;;;;;0.95;0.90;;;20.00;43.40;;;23.44;30.12;100510.31;5137819;27;20047;-46
2021/05/23 04:23:36;;;;;;;0.82;0.80;;;20.00;43.40;;;23.44;30.13;100512.16;5105508;27;20040;-46
2021/05/23 04:26:02;;;;;;;0.88;0.70;;;19.90;43.40;;;23.45;30.29;100519.16;5157223;27;20035;-45
2021/05/23 04:28:29;;;;;;;0.60;0.60;;;19.90;43.40;;;23.46;30.15;100526.22;5112267;27;20127;-45
2021/05/23 04:30:56;;;;;;;1.30;0.80;;;19.90;43.50;;;23.45;30.17;100520.00;5121067;27;20409;-44
2021/05/23 04:33:23;;;;;;;0.93;0.70;;;19.90;43.50;;;23.47;30.03;100519.91;5120945;27;20074;-44
2021/05/23 04:35:48;;;;;;;1.00;0.63;;;20.00;43.50;;;23.55;30.06;100529.97;5102527;27;20077;-45
2021/05/23 04:38:14;;;;;;;1.45;0.85;;;20.10;43.40;;;23.61;29.99;100529.50;5106212;27;20058;-44
2021/05/23 04:40:40;;;;;;;0.80;0.70;;;20.20;43.20;;;23.72;30.02;100529.50;5137093;27;20050;-44
2021/05/23 04:43:06;;;;;;;0.82;0.68;;;20.30;43.40;;;23.79;29.71;100540.53;5121138;27;20038;-44
2021/05/23 04:45:32;;;;;;;1.17;0.60;;;20.40;42.70;;;23.87;29.77;100530.13;5101743;27;20483;-45
2021/05/23 04:47:58;;;;;;;0.90;0.68;;;20.50;42.50;;;23.97;29.56;100541.81;5120519;27;20062;-44
2021/05/23 04:50:23;;;;;;;1.95;0.80;;;20.60;42.30;;;24.04;29.42;100542.16;5120806;27;20047;-44
2021/05/23 04:52:49;;;;;;;0.57;0.50;;;20.70;42.20;;;24.13;29.42;100554.78;5137746;27;20046;-47
2021/05/23 04:55:15;;;;;;;1.42;0.90;;;20.80;42.10;;;24.22;29.42;100553.16;5137012;27;20151;-44
2021/05/23 04:57:41;;;;;;;0.68;0.65;;;20.90;41.90;;;24.33;29.30;100555.00;5104826;27;20128;-46
2021/05/23 05:00:12;;;;;;;1.00;0.70;;;21.00;41.70;;;24.38;29.28;100548.28;5120147;27;20046;-43
2021/05/23 05:02:40;;;;;;;0.70;0.70;;;21.00;41.50;;;24.41;29.18;100553.38;5120449;27;20053;-44
2021/05/23 05:05:08;;;;;;;1.13;1.00;;;21.00;41.60;;;24.39;28.98;100558.00;5120525;27;20046;-44
2021/05/23 05:07:34;;;;;;;0.98;0.82;;;20.90;41.70;;;24.39;29.00;100574.03;5137296;27;20039;-44
2021/05/23 05:10:00;;;;;;;1.00;0.80;;;20.90;41.80;;;24.38;29.13;100567.00;5120341;27;20054;-44
2021/05/23 05:12:25;;;;;;;0.60;0.60;;;20.90;41.90;;;24.41;29.08;100579.28;5120536;27;20049;-44
2021/05/23 05:14:51;;;;;;;1.10;0.57;;;20.90;41.80;;;24.45;28.80;100580.69;5120387;27;20482;-43
2021/05/23 05:17:17;;;;;;;1.08;0.60;;;21.00;41.70;;;24.51;28.88;100580.22;5136851;27;20159;-44
2021/05/23 05:19:43;;;;;;;0.70;0.60;;;21.00;41.60;;;24.56;28.96;100578.03;5120149;27;20620;-43
2021/05/23 05:22:09;;;;;;;1.15;0.70;;;21.10;41.50;;;24.59;28.81;100583.16;5120095;27;20043;-44
2021/05/23 05:24:35;;;;;;;0.90;0.65;;;21.10;41.40;;;24.68;28.90;100594.06;5137823;27;20049;-45
2021/05/23 05:27:01;;;;;;;0.90;0.70;;;21.20;41.30;;;24.77;28.57;100603.97;5155775;27;20046;-44
2021/05/23 05:29:27;;;;;;;0.60;0.60;;;21.30;41.20;;;24.79;28.61;100594.00;5135747;27;20051;-45
2021/05/23 05:31:55;;;;;;;0.80;0.68;;;21.30;41.10;;;24.82;28.58;100595.59;5120101;27;20110;-44
2021/05/23 05:34:21;;;;;;;0.80;0.80;;;21.40;41.70;;;24.86;28.64;100597.88;5119771;27;20043;-43
2021/05/23 05:36:47;;;;;;;1.23;0.90;;;21.40;41.00;;;24.94;28.32;100592.75;5119460;27;20130;-44
2021/05/23 05:39:13;;;;;;;1.02;0.80;;;21.50;40.90;;;25.02;28.37;100601.97;5135639;27;20043;-44
2021/05/23 05:41:39;;;;;;;0.63;0.63;;;21.60;40.80;;;25.07;28.34;100608.63;5120135;27;20038;-46
2021/05/23 05:44:05;;;;;;;0.80;0.80;;;21.60;40.70;;;25.15;28.19;100606.16;5119117;27;20047;-44
2021/05/23 05:46:31;;;;;;;0.75;0.75;;;21.70;41.10;;;25.22;28.15;100609.16;5101664;27;20392;-44
2021/05/23 05:48:57;;;;;;;0.60;0.60;;;21.70;40.50;;;25.24;28.04;100601.88;5102968;27;20138;-44
2021/05/23 05:51:23;;;;;;;0.60;0.60;;;21.80;40.50;;;25.32;28.19;100614.63;5120233;27;20043;-45
2021/05/23 05:53:48;;;;;;;0.63;0.63;;;21.80;40.40;;;25.34;27.91;100615.31;5119594;27;20557;-49
2021/05/23 05:56:14;;;;;;;0.95;0.60;;;21.80;40.40;;;25.36;28.05;100605.38;5119897;27;20049;-46
2021/05/23 05:58:40;;;;;;;0.60;0.50;;;21.80;40.40;;;25.35;27.84;100606.34;5136814;27;20054;-49
2021/05/23 06:01:06;;;;;;;0.60;0.60;;;21.80;40.40;;;25.38;27.83;100606.06;5119612;27;20043;-47
2021/05/23 06:03:32;;;;;;;0.80;0.80;;;21.90;40.30;;;25.42;27.75;100607.50;5119670;27;20110;-46
2021/05/23 06:05:58;;;;;;;0.70;0.65;;;21.80;40.20;;;25.43;27.80;100617.25;5136918;27;20050;-44
2021/05/23 06:08:24;;;;;;;0.60;0.60;;;21.90;40.30;;;25.46;27.63;100614.31;5119727;27;20055;-48
2021/05/23 06:10:50;;;;;;;0.65;0.63;;;21.80;40.20;;;25.47;27.69;100628.53;5119468;27;20052;-47
2021/05/23 06:13:16;;;;;;;0.80;0.70;;;21.90;40.30;;;25.48;27.68;100625.72;5118643;27;20090;-44
2021/05/23 06:15:42;;;;;;;1.10;0.80;;;21.90;40.20;;;25.48;27.58;100628.41;5119386;27;20046;-45
2021/05/23 06:18:08;;;;;;;1.00;0.60;;;21.90;40.20;;;25.51;27.70;100636.19;5136311;27;20051;-47
2021/05/23 06:20:34;;;;;;;1.65;0.80;;;21.90;40.20;;;25.51;27.63;100619.28;5119339;27;20053;-44
2021/05/23 06:23:00;;;;;;;1.02;0.70;;;22.00;40.10;;;25.59;27.50;100627.47;5117230;27;20055;-46
2021/05/23 06:25:26;;;;;;;0.93;0.70;;;22.10;40.00;;;25.63;27.48;100634.28;5119063;27;20058;-47
2021/05/23 06:27:52;;;;;;;0.80;0.63;;;22.10;39.90;;;25.65;27.31;100631.47;5119149;27;20046;-48
2021/05/23 06:30:19;;;;;;;0.88;0.70;;;22.10;39.80;;;25.72;27.32;100627.28;5119354;27;20039;-45
2021/05/23 06:32:45;;;;;;;0.55;0.55;;;22.20;39.70;;;25.79;27.25;100624.94;5136215;27;20047;-45
2021/05/23 06:35:13;;;;;;;1.38;0.65;;;22.30;39.60;;;25.85;27.26;100621.72;5154814;27;20047;-46
2021/05/23 06:37:39;;;;;;;0.85;0.70;;;22.40;39.50;;;25.91;27.16;100633.72;5119025;27;20140;-47
2021/05/23 06:40:05;;;;;;;0.55;0.55;;;22.30;39.40;;;25.96;27.01;100640.44;5134870;27;20078;-45
2021/05/23 06:42:31;;;;;;;0.82;0.70;;;22.40;39.40;;;26.02;27.07;100639.88;5136431;27;20129;-45
2021/05/23 06:44:57;;;;;;;0.60;0.60;;;22.40;39.30;;;26.03;26.97;100633.53;5136146;27;20062;-43
2021/05/23 06:47:23;;;;;;;1.08;0.93;;;22.40;39.30;;;26.03;26.92;100643.44;5135866;27;20046;-45
2021/05/23 06:49:49;;;;;;;1.80;0.75;;;22.40;39.20;;;26.09;27.02;100642.03;5118903;27;20039;-45
2021/05/23 06:52:15;;;;;;;0.80;0.70;;;22.40;39.20;;;26.12;26.82;100660.53;5118675;27;20046;-45
2021/05/23 06:54:41;;;;;;;0.60;0.60;;;22.50;39.20;;;26.13;26.85;100662.19;5101643;27;20126;-45
2021/05/23 06:57:07;;;;;;;0.70;0.70;;;22.50;39.20;;;26.18;26.77;100666.19;5118718;27;20042;-46
2021/05/23 06:59:32;;;;;;;0.88;0.70;;;22.60;39.10;;;26.21;26.76;100673.97;5119222;27;20045;-44
2021/05/23 07:01:58;;;;;;;0.63;0.63;;;22.60;39.10;;;26.24;26.68;100673.72;5118679;27;20095;-45
2021/05/23 07:04:24;;;;;;;1.45;0.82;;;22.60;39.00;;;26.26;26.70;100678.91;5118551;27;20405;-45
2021/05/23 07:06:53;;;;;;;0.70;0.70;;;22.70;39.00;;;26.29;26.68;100677.81;5118551;27;20105;-44
2021/05/23 07:09:19;;;;;;;0.88;0.80;;;22.60;38.90;;;26.31;26.74;100681.19;5118582;27;20043;-44
2021/05/23 07:11:44;;;;;;;0.88;0.70;;;22.60;38.90;;;26.33;26.75;100685.44;5118110;27;20057;-46
2021/05/23 07:14:10;;;;;;;0.88;0.80;;;22.70;38.90;;;26.35;26.55;100696.88;5117018;27;20039;-44
2021/05/23 07:16:36;;;;;;;0.65;0.65;;;22.70;38.90;;;26.34;26.56;100700.53;5118715;27;20478;-45
2021/05/23 07:19:02;;;;;;;1.05;0.70;;;22.60;39.00;;;26.28;26.60;100692.19;5102876;27;20604;-43
2021/05/23 07:21:28;;;;;;;0.68;0.63;;;22.60;39.00;;;26.32;26.61;100696.31;5101374;27;20125;-44
2021/05/23 07:23:54;;;;;;;0.63;0.60;;;22.60;39.00;;;26.36;26.56;100693.22;5103351;27;20050;-44
2021/05/23 07:26:20;;;;;;;0.63;0.63;;;22.60;38.90;;;26.37;26.72;100702.09;5121989;27;20145;-45
2021/05/23 07:28:46;;;;;;;0.80;0.68;;;22.60;38.90;;;26.31;26.48;100698.16;5120975;27;20039;-46
2021/05/23 07:31:13;;;;;;;0.82;0.80;;;22.60;39.00;;;26.29;26.58;100696.56;5122148;27;20046;-44
2021/05/23 07:33:39;;;;;;;0.75;0.57;;;22.50;39.00;;;26.27;26.55;100707.41;5104942;27;20490;-48
2021/05/23 07:36:07;;;;;;;1.08;0.80;;;22.50;39.10;;;26.28;26.64;100698.41;5121793;27;20089;-46
2021/05/23 07:38:34;;;;;;;1.00;0.60;;;22.60;39.00;;;26.32;26.46;100702.50;5114598;27;20043;-47
2021/05/23 07:41:00;;;;;;;0.68;0.57;;;22.60;38.90;;;26.37;26.53;100710.16;5122163;27;20086;-49
2021/05/23 07:43:26;;;;;;;0.95;0.50;;;22.60;38.90;;;26.37;26.51;100708.31;5122105;27;20133;-44
2021/05/23 07:45:52;;;;;;;0.50;0.50;;;22.60;38.80;;;26.41;26.31;100712.44;5121992;27;20558;-45
2021/05/23 07:48:19;;;;;;;0.60;0.60;;;22.70;38.80;;;26.44;26.16;100714.81;5121590;27;20047;-45
2021/05/23 07:50:47;;;;;;;0.70;0.60;;;22.70;38.70;;;26.45;26.20;100721.06;5121705;27;20086;-45
2021/05/23 07:53:13;;;;;;;0.50;0.50;;;22.80;38.80;;;26.43;26.31;100718.50;5121984;27;20069;-45
2021/05/23 07:55:38;;;;;;;0.50;0.50;;;22.60;38.70;;;26.44;26.08;100722.03;5121452;27;20066;-45
2021/05/23 07:58:04;;;;;;;0.52;0.52;;;22.60;38.80;;;26.43;26.19;100726.53;5121569;27;20058;-44
2021/05/23 08:00:30;;;;;;;0.90;0.60;;;22.60;38.80;;;26.42;26.27;100735.56;5119900;27;20047;-43
2021/05/23 08:02:56;;;;;;;1.50;0.80;;;22.70;38.80;;;26.42;26.35;100738.25;5121294;27;20038;-45
2021/05/23 08:05:22;;;;;;;0.60;0.60;;;22.60;38.80;;;26.43;26.19;100741.78;5121373;27;20043;-44
2021/05/23 08:07:48;;;;;;;0.80;0.60;;;22.70;38.80;;;26.44;26.32;100740.78;5120531;27;20059;-46
2021/05/23 08:10:14;;;;;;;0.60;0.60;;;22.70;38.70;;;26.43;26.26;100739.09;5104899;27;20512;-46
2021/05/23 08:12:40;;;;;;;1.13;0.70;;;22.70;38.80;;;26.46;26.24;100748.69;5121259;27;20466;-44
2021/05/23 08:15:07;;;;;;;0.85;0.60;;;22.60;38.70;;;26.42;26.33;100745.44;5138837;27;20183;-50
2021/05/23 08:17:33;;;;;;;0.65;0.55;;;22.60;38.80;;;26.44;26.19;100763.06;5136976;27;20047;-46
2021/05/23 08:19:59;;;;;;;1.08;0.60;;;22.60;38.80;;;26.38;26.24;100755.59;5121606;27;20497;-47
2021/05/23 08:22:25;;;;;;;0.70;0.70;;;22.60;38.80;;;26.37;26.30;100761.91;5138410;27;20126;-46
2021/05/23 08:24:51;;;;;;;0.85;0.52;;;22.50;38.80;;;26.35;26.30;100763.06;5137554;27;20076;-46
2021/05/23 08:27:17;;;;;;;0.80;0.70;;;22.50;38.90;;;26.38;26.35;100765.44;5104148;27;20069;-43
2021/05/23 08:29:43;;;;;;;1.05;0.60;;;22.50;38.90;;;26.37;26.15;100764.59;5138403;27;20474;-45
2021/05/23 08:32:09;;;;;;;1.05;0.80;;;22.60;38.90;;;26.35;26.29;100771.09;5137621;27;20047;-48
2021/05/23 08:34:34;;;;;;;0.88;0.70;;;22.60;38.90;;;26.35;26.25;100774.63;5120499;27;20038;-45
2021/05/23 08:37:01;;;;;;;1.27;0.70;;;22.50;38.90;;;26.29;26.28;100774.28;5137897;27;20488;-44
2021/05/23 08:39:29;;;;;;;0.52;0.52;;;22.40;39.00;;;26.20;26.18;100782.13;5121052;27;20050;-47
2021/05/23 08:41:55;;;;;;;1.00;0.90;;;22.40;39.10;;;26.17;26.24;100787.75;5120841;27;20046;-46
2021/05/23 08:44:22;;;;;;;0.98;0.57;;;22.30;39.20;;;26.17;26.55;100781.56;5120899;27;20043;-47
2021/05/23 08:46:52;;;;;;;1.38;0.80;;;22.30;39.30;;;26.11;26.37;100784.75;5120662;27;20481;-49
2021/05/23 08:49:29;;;;;;;1.13;0.70;;;22.30;39.30;;;26.11;26.49;100782.94;5120672;27;20490;-46
2021/05/23 08:51:55;;;;;;;0.50;0.50;;;22.30;39.40;;;26.12;26.51;100792.66;5120669;27;20049;-47
2021/05/23 08:54:22;;;;;;;0.65;0.52;;;22.30;39.30;;;26.12;26.55;100795.34;5120666;27;20129;-48
2021/05/23 08:56:51;;;;;;;1.45;0.82;;;22.30;39.30;;;26.08;26.44;100799.28;5101571;27;20043;-48
2021/05/23 08:59:17;;;;;;;0.68;0.68;;;22.30;39.30;;;26.09;26.49;100806.31;5120638;27;20123;-44
2021/05/23 09:01:44;;;;;;;1.00;0.63;;;22.30;39.30;;;26.11;26.38;100807.06;5119668;27;20134;-45
2021/05/23 09:04:17;;;;;;;0.75;0.60;;;22.30;39.30;;;26.10;26.52;100804.50;5101996;27;20073;-47
2021/05/23 09:06:44;;;;;;;0.70;0.70;;;22.30;39.30;;;26.09;26.52;100811.69;5101149;27;20048;-46
2021/05/23 09:09:13;;;;;;;0.65;0.60;;;22.30;39.30;;;26.10;26.58;100812.53;5118899;27;20059;-46
2021/05/23 09:11:52;;;;;;;1.00;0.70;;;22.30;39.40;;;26.06;26.61;100811.94;5135501;27;20074;-45
2021/05/23 09:14:40;;;;;;;1.00;0.90;;;22.20;39.30;;;26.06;26.70;100806.56;5120253;27;20489;-44
2021/05/23 09:17:07;;;;;;;0.77;0.60;;;22.20;39.40;;;26.05;26.38;100812.94;5120079;27;20141;-43
2021/05/23 09:19:43;;;;;;;1.17;0.65;;;22.20;39.90;;;25.98;26.48;100811.75;5137282;27;20050;-46
2021/05/23 09:22:15;;;;;;;0.75;0.65;;;22.20;39.40;;;25.95;26.68;100822.69;5120552;27;20137;-45
2021/05/23 09:25:01;;;;;;;0.68;0.50;;;22.10;39.40;;;25.95;26.70;100828.94;5137278;27;20129;-44
2021/05/23 09:27:30;;;;;;;0.70;0.70;;;22.10;39.50;;;25.94;26.57;100819.16;5137912;27;20144;-45
2021/05/23 09:30:19;;;;;;;0.75;0.65;;;22.10;39.60;;;25.93;26.66;100824.63;5137373;27;20035;-45
2021/05/23 09:32:46;;;;;;;0.80;0.70;;;22.10;39.50;;;25.94;26.61;100824.50;5121615;27;20046;-45
2021/05/23 09:35:15;;;;;;;0.80;0.60;;;22.10;39.50;;;25.96;26.57;100827.09;5137846;27;20043;-45
2021/05/23 09:37:42;;;;;;;0.57;0.57;;;22.20;39.50;;;25.99;26.59;100838.38;5120015;27;20466;-46
2021/05/23 09:40:20;;;;;;;0.70;0.70;;;22.20;39.40;;;25.95;26.57;100834.28;5119953;27;20039;-47
2021/05/23 09:42:49;;;;;;;0.73;0.68;;;22.20;39.40;;;25.96;26.59;100838.66;5137518;27;20393;-44
2021/05/23 09:45:17;;;;;;;0.90;0.60;;;22.20;39.40;;;25.99;26.56;100832.19;5119024;27;20074;-47
2021/05/23 09:47:58;;;;;;;0.57;0.57;;;22.20;39.40;;;25.96;26.60;100843.16;5119586;27;20046;-47
2021/05/23 09:50:40;;;;;;;0.95;0.65;;;22.20;39.40;;;26.01;26.68;100838.25;5119729;27;20039;-44
2021/05/23 09:53:31;;;;;;;1.05;0.70;;;22.20;39.40;;;26.02;26.58;100837.28;5120040;27;20485;-45
2021/05/23 09:56:04;;;;;;;0.52;0.52;;;22.20;39.30;;;25.99;26.46;100835.72;5117413;27;20047;-46
2021/05/23 09:58:45;;;;;;;0.90;0.57;;;22.20;39.30;;;26.02;26.60;100848.84;5137130;27;20050;-45
2021/05/23 10:01:28;;;;;;;0.67;0.60;;;22.20;39.30;;;26.03;26.63;100849.72;5120317;27;20091;-48
2021/05/23 10:03:56;;;;;;;0.65;0.50;;;22.20;39.30;;;26.06;26.48;100841.41;5136726;27;21062;-47
2021/05/23 10:06:37;;;;;;;0.60;0.60;;;22.30;39.30;;;26.05;26.48;100853.97;5118835;27;20043;-47
2021/05/23 10:09:04;;;;;;;0.70;0.63;;;22.30;39.20;;;26.09;26.46;100845.66;5119576;27;20405;-49
2021/05/23 10:11:30;;;;;;;0.85;0.77;;;22.30;39.20;;;26.09;26.53;100856.38;5119474;27;20054;-45
2021/05/23 10:13:55;;;;;;;0.82;0.70;;;22.30;39.20;;;26.04;26.42;100849.59;5119322;27;20043;-48
2021/05/23 10:16:21;;;;;;;0.60;0.60;;;22.20;39.20;;;26.02;26.53;100853.38;5103240;27;20042;-46
2021/05/23 10:18:50;;;;;;;0.65;0.65;;;22.20;39.30;;;26.01;26.55;100857.88;5136502;27;20088;-46